sensor_id;sensor_type;location;lat;lon;timestamp;P1;durP1;ratioP1;P2;durP2;ratioP2
14078;SDS011;7115;50.150;8.568;2023-01-13T00:01:47;1.60;;;0.40;;
14078;SDS011;7115;50.150;8.568;2023-01-13T00:04:14;2.77;;;0.83;;
14078;SDS011;7115;50.150;8.568;2023-01-13T00:06:41;1.27;;;0.40;;
14078;SDS011;7115;50.150;8.568;2023-01-13T00:09:07;4.00;;;0.63;;
14078;SDS011;7115;50.150;8.568;2023-01-13T00:11:34;1.27;;;0.70;;
14078;SDS011;7115;50.150;8.568;2023-01-13T00:14:03;0.97;;;0.60;;
14078;SDS011;7115;50.150;8.568;2023-01-13T00:16:30;0.73;;;0.50;;
14078;SDS011;7115;50.150;8.568;2023-01-13T00:18:57;1.13;;;0.50;;
14078;SDS011;7115;50.150;8.568;2023-01-13T00:21:23;3.50;;;0.70;;
14078;SDS011;7115;50.150;8.568;2023-01-13T00:23:51;1.87;;;0.60;;
14078;SDS011;7115;50.150;8.568;2023-01-13T00:26:19;0.43;;;0.37;;
14078;SDS011;7115;50.150;8.568;2023-01-13T00:28:48;1.33;;;0.47;;
14078;SDS011;7115;50.150;8.568;2023-01-13T00:31:17;1.40;;;0.60;;
14078;SDS011;7115;50.150;8.568;2023-01-13T00:33:45;3.50;;;0.63;;
14078;SDS011;7115;50.150;8.568;2023-01-13T00:36:14;2.33;;;0.57;;
14078;SDS011;7115;50.150;8.568;2023-01-13T00:38:42;1.97;;;0.70;;
14078;SDS011;7115;50.150;8.568;2023-01-13T00:41:10;1.83;;;0.70;;
14078;SDS011;7115;50.150;8.568;2023-01-13T00:43:38;3.63;;;0.63;;
14078;SDS011;7115;50.150;8.568;2023-01-13T00:46:06;0.97;;;0.60;;
14078;SDS011;7115;50.150;8.568;2023-01-13T00:48:36;2.33;;;0.50;;
14078;SDS011;7115;50.150;8.568;2023-01-13T00:51:04;2.80;;;0.80;;
14078;SDS011;7115;50.150;8.568;2023-01-13T00:53:33;2.83;;;0.63;;
14078;SDS011;7115;50.150;8.568;2023-01-13T00:56:02;2.57;;;0.57;;
14078;SDS011;7115;50.150;8.568;2023-01-13T00:58:31;0.60;;;0.40;;
14078;SDS011;7115;50.150;8.568;2023-01-13T01:00:59;1.33;;;0.43;;
14078;SDS011;7115;50.150;8.568;2023-01-13T01:03:27;1.40;;;0.60;;
14078;SDS011;7115;50.150;8.568;2023-01-13T01:05:55;1.30;;;0.60;;
14078;SDS011;7115;50.150;8.568;2023-01-13T01:08:23;1.77;;;0.80;;
14078;SDS011;7115;50.150;8.568;2023-01-13T01:10:52;1.30;;;0.77;;
14078;SDS011;7115;50.150;8.568;2023-01-13T01:13:26;0.70;;;0.40;;
14078;SDS011;7115;50.150;8.568;2023-01-13T01:15:52;1.00;;;0.70;;
14078;SDS011;7115;50.150;8.568;2023-01-13T01:18:19;1.77;;;0.60;;
14078;SDS011;7115;50.150;8.568;2023-01-13T01:20:46;1.73;;;0.50;;
14078;SDS011;7115;50.150;8.568;2023-01-13T01:23:14;1.83;;;0.60;;
14078;SDS011;7115;50.150;8.568;2023-01-13T01:25:41;0.60;;;0.40;;
14078;SDS011;7115;50.150;8.568;2023-01-13T01:28:08;1.33;;;0.60;;
14078;SDS011;7115;50.150;8.568;2023-01-13T01:30:37;1.47;;;0.60;;
14078;SDS011;7115;50.150;8.568;2023-01-13T01:33:04;1.03;;;0.50;;
14078;SDS011;7115;50.150;8.568;2023-01-13T01:35:31;1.27;;;0.30;;
14078;SDS011;7115;50.150;8.568;2023-01-13T01:37:57;1.30;;;0.50;;
14078;SDS011;7115;50.150;8.568;2023-01-13T01:40:26;1.47;;;0.43;;
14078;SDS011;7115;50.150;8.568;2023-01-13T01:42:53;9.00;;;0.90;;
14078;SDS011;7115;50.150;8.568;2023-01-13T01:45:38;1.03;;;0.43;;
14078;SDS011;7115;50.150;8.568;2023-01-13T01:48:05;1.20;;;0.47;;
14078;SDS011;7115;50.150;8.568;2023-01-13T01:50:33;1.13;;;0.20;;
14078;SDS011;7115;50.150;8.568;2023-01-13T01:53:04;0.63;;;0.30;;
14078;SDS011;7115;50.150;8.568;2023-01-13T01:55:35;0.67;;;0.40;;
14078;SDS011;7115;50.150;8.568;2023-01-13T01:58:05;0.83;;;0.40;;
14078;SDS011;7115;50.150;8.568;2023-01-13T02:00:35;0.73;;;0.50;;
14078;SDS011;7115;50.150;8.568;2023-01-13T02:03:02;1.03;;;0.40;;
14078;SDS011;7115;50.150;8.568;2023-01-13T02:05:31;5.20;;;0.50;;
14078;SDS011;7115;50.150;8.568;2023-01-13T02:07:59;1.63;;;0.43;;
14078;SDS011;7115;50.150;8.568;2023-01-13T02:10:28;0.67;;;0.40;;
14078;SDS011;7115;50.150;8.568;2023-01-13T02:12:57;0.93;;;0.40;;
14078;SDS011;7115;50.150;8.568;2023-01-13T02:15:28;1.37;;;0.40;;
14078;SDS011;7115;50.150;8.568;2023-01-13T02:18:04;1.73;;;0.70;;
14078;SDS011;7115;50.150;8.568;2023-01-13T02:20:48;2.53;;;0.40;;
14078;SDS011;7115;50.150;8.568;2023-01-13T02:29:53;0.40;;;0.27;;
14078;SDS011;7115;50.150;8.568;2023-01-13T02:33:07;1.00;;;0.37;;
14078;SDS011;7115;50.150;8.568;2023-01-13T02:35:44;1.37;;;0.30;;
14078;SDS011;7115;50.150;8.568;2023-01-13T02:38:17;1.43;;;0.30;;
14078;SDS011;7115;50.150;8.568;2023-01-13T02:40:49;0.97;;;0.30;;
14078;SDS011;7115;50.150;8.568;2023-01-13T02:43:22;0.47;;;0.27;;
14078;SDS011;7115;50.150;8.568;2023-01-13T02:46:16;1.33;;;0.43;;
14078;SDS011;7115;50.150;8.568;2023-01-13T02:48:49;1.43;;;0.30;;
14078;SDS011;7115;50.150;8.568;2023-01-13T02:51:18;0.90;;;0.30;;
14078;SDS011;7115;50.150;8.568;2023-01-13T02:53:49;0.90;;;0.40;;
14078;SDS011;7115;50.150;8.568;2023-01-13T02:56:21;1.17;;;0.40;;
14078;SDS011;7115;50.150;8.568;2023-01-13T02:58:49;0.50;;;0.20;;
14078;SDS011;7115;50.150;8.568;2023-01-13T03:01:19;1.63;;;0.50;;
14078;SDS011;7115;50.150;8.568;2023-01-13T03:03:47;0.67;;;0.20;;
14078;SDS011;7115;50.150;8.568;2023-01-13T03:06:20;0.60;;;0.20;;
14078;SDS011;7115;50.150;8.568;2023-01-13T03:09:02;0.43;;;0.30;;
14078;SDS011;7115;50.150;8.568;2023-01-13T03:11:38;2.03;;;0.30;;
14078;SDS011;7115;50.150;8.568;2023-01-13T03:14:17;0.87;;;0.30;;
14078;SDS011;7115;50.150;8.568;2023-01-13T03:16:55;1.10;;;0.40;;
14078;SDS011;7115;50.150;8.568;2023-01-13T03:19:41;0.93;;;0.30;;
14078;SDS011;7115;50.150;8.568;2023-01-13T03:22:14;0.30;;;0.20;;
14078;SDS011;7115;50.150;8.568;2023-01-13T03:24:49;0.43;;;0.20;;
14078;SDS011;7115;50.150;8.568;2023-01-13T03:27:21;0.33;;;0.20;;
14078;SDS011;7115;50.150;8.568;2023-01-13T03:29:54;0.67;;;0.30;;
14078;SDS011;7115;50.150;8.568;2023-01-13T03:32:26;0.43;;;0.10;;
14078;SDS011;7115;50.150;8.568;2023-01-13T03:34:57;0.37;;;0.20;;
14078;SDS011;7115;50.150;8.568;2023-01-13T03:37:29;0.83;;;0.40;;
14078;SDS011;7115;50.150;8.568;2023-01-13T03:39:59;2.23;;;0.23;;
14078;SDS011;7115;50.150;8.568;2023-01-13T03:42:32;0.40;;;0.20;;
14078;SDS011;7115;50.150;8.568;2023-01-13T03:45:03;0.37;;;0.20;;
14078;SDS011;7115;50.150;8.568;2023-01-13T03:47:37;0.70;;;0.30;;
14078;SDS011;7115;50.150;8.568;2023-01-13T03:50:08;1.53;;;0.30;;
14078;SDS011;7115;50.150;8.568;2023-01-13T03:52:39;0.47;;;0.30;;
14078;SDS011;7115;50.150;8.568;2023-01-13T03:55:10;0.20;;;0.20;;
14078;SDS011;7115;50.150;8.568;2023-01-13T03:57:41;0.23;;;0.20;;
14078;SDS011;7115;50.150;8.568;2023-01-13T04:00:14;0.70;;;0.10;;
14078;SDS011;7115;50.150;8.568;2023-01-13T04:02:46;0.60;;;0.20;;
14078;SDS011;7115;50.150;8.568;2023-01-13T04:05:16;0.20;;;0.20;;
14078;SDS011;7115;50.150;8.568;2023-01-13T04:07:46;0.57;;;0.30;;
14078;SDS011;7115;50.150;8.568;2023-01-13T04:10:22;0.70;;;0.27;;
14078;SDS011;7115;50.150;8.568;2023-01-13T04:12:55;0.73;;;0.37;;
14078;SDS011;7115;50.150;8.568;2023-01-13T04:15:29;0.10;;;0.10;;
14078;SDS011;7115;50.150;8.568;2023-01-13T04:18:09;0.27;;;0.20;;
14078;SDS011;7115;50.150;8.568;2023-01-13T04:20:39;0.40;;;0.10;;
14078;SDS011;7115;50.150;8.568;2023-01-13T04:23:06;0.20;;;0.10;;
14078;SDS011;7115;50.150;8.568;2023-01-13T04:25:33;0.57;;;0.30;;
14078;SDS011;7115;50.150;8.568;2023-01-13T04:28:01;0.20;;;0.20;;
14078;SDS011;7115;50.150;8.568;2023-01-13T04:30:28;0.50;;;0.20;;
14078;SDS011;7115;50.150;8.568;2023-01-13T04:32:55;0.20;;;0.20;;
14078;SDS011;7115;50.150;8.568;2023-01-13T04:35:23;0.23;;;0.20;;
14078;SDS011;7115;50.150;8.568;2023-01-13T04:37:50;3.17;;;0.20;;
14078;SDS011;7115;50.150;8.568;2023-01-13T04:40:17;2.33;;;0.37;;
14078;SDS011;7115;50.150;8.568;2023-01-13T04:42:44;0.93;;;0.30;;
14078;SDS011;7115;50.150;8.568;2023-01-13T04:45:11;0.73;;;0.13;;
14078;SDS011;7115;50.150;8.568;2023-01-13T04:47:38;0.73;;;0.30;;
14078;SDS011;7115;50.150;8.568;2023-01-13T04:50:07;2.23;;;0.40;;
14078;SDS011;7115;50.150;8.568;2023-01-13T04:52:36;0.20;;;0.20;;
14078;SDS011;7115;50.150;8.568;2023-01-13T04:55:04;0.30;;;0.30;;
14078;SDS011;7115;50.150;8.568;2023-01-13T04:57:32;0.30;;;0.20;;
14078;SDS011;7115;50.150;8.568;2023-01-13T05:00:00;0.70;;;0.30;;
14078;SDS011;7115;50.150;8.568;2023-01-13T05:02:27;0.73;;;0.30;;
14078;SDS011;7115;50.150;8.568;2023-01-13T05:04:54;0.10;;;0.10;;
14078;SDS011;7115;50.150;8.568;2023-01-13T05:07:21;0.23;;;0.20;;
14078;SDS011;7115;50.150;8.568;2023-01-13T05:09:49;4.43;;;0.60;;
14078;SDS011;7115;50.150;8.568;2023-01-13T05:12:16;0.27;;;0.20;;
14078;SDS011;7115;50.150;8.568;2023-01-13T05:15:01;1.47;;;0.30;;
14078;SDS011;7115;50.150;8.568;2023-01-13T05:17:47;1.83;;;0.30;;
14078;SDS011;7115;50.150;8.568;2023-01-13T05:20:15;2.33;;;0.50;;
14078;SDS011;7115;50.150;8.568;2023-01-13T05:22:43;0.30;;;0.10;;
14078;SDS011;7115;50.150;8.568;2023-01-13T05:25:30;2.47;;;0.20;;
14078;SDS011;7115;50.150;8.568;2023-01-13T05:27:58;0.17;;;0.00;;
14078;SDS011;7115;50.150;8.568;2023-01-13T05:30:26;0.30;;;0.10;;
14078;SDS011;7115;50.150;8.568;2023-01-13T05:32:54;0.00;;;0.00;;
14078;SDS011;7115;50.150;8.568;2023-01-13T05:35:21;0.73;;;0.10;;
14078;SDS011;7115;50.150;8.568;2023-01-13T05:37:48;0.90;;;0.07;;
14078;SDS011;7115;50.150;8.568;2023-01-13T05:40:16;0.43;;;0.10;;
14078;SDS011;7115;50.150;8.568;2023-01-13T05:43:05;0.00;;;0.00;;
14078;SDS011;7115;50.150;8.568;2023-01-13T05:45:47;0.17;;;0.00;;
14078;SDS011;7115;50.150;8.568;2023-01-13T05:48:16;0.20;;;0.10;;
14078;SDS011;7115;50.150;8.568;2023-01-13T05:50:44;0.63;;;0.20;;
14078;SDS011;7115;50.150;8.568;2023-01-13T05:53:12;1.20;;;0.07;;
14078;SDS011;7115;50.150;8.568;2023-01-13T05:55:39;0.83;;;0.20;;
14078;SDS011;7115;50.150;8.568;2023-01-13T05:58:09;0.43;;;0.20;;
14078;SDS011;7115;50.150;8.568;2023-01-13T06:00:36;1.97;;;0.20;;
14078;SDS011;7115;50.150;8.568;2023-01-13T06:03:07;0.67;;;0.13;;
14078;SDS011;7115;50.150;8.568;2023-01-13T06:05:34;3.20;;;0.27;;
14078;SDS011;7115;50.150;8.568;2023-01-13T06:08:02;0.10;;;0.10;;
14078;SDS011;7115;50.150;8.568;2023-01-13T06:10:31;1.00;;;0.20;;
14078;SDS011;7115;50.150;8.568;2023-01-13T06:12:59;1.80;;;0.13;;
14078;SDS011;7115;50.150;8.568;2023-01-13T06:15:27;3.10;;;0.30;;
14078;SDS011;7115;50.150;8.568;2023-01-13T06:17:54;2.33;;;0.33;;
14078;SDS011;7115;50.150;8.568;2023-01-13T06:20:22;0.43;;;0.20;;
14078;SDS011;7115;50.150;8.568;2023-01-13T06:22:50;3.03;;;1.10;;
14078;SDS011;7115;50.150;8.568;2023-01-13T06:25:21;2.83;;;0.40;;
14078;SDS011;7115;50.150;8.568;2023-01-13T06:27:54;0.20;;;0.10;;
14078;SDS011;7115;50.150;8.568;2023-01-13T06:30:22;2.60;;;0.20;;
14078;SDS011;7115;50.150;8.568;2023-01-13T06:32:52;0.77;;;0.20;;
14078;SDS011;7115;50.150;8.568;2023-01-13T06:35:23;0.33;;;0.20;;
14078;SDS011;7115;50.150;8.568;2023-01-13T06:37:54;1.53;;;0.30;;
14078;SDS011;7115;50.150;8.568;2023-01-13T06:40:23;0.70;;;0.50;;
14078;SDS011;7115;50.150;8.568;2023-01-13T06:42:51;1.70;;;0.30;;
14078;SDS011;7115;50.150;8.568;2023-01-13T06:45:46;3.83;;;0.50;;
14078;SDS011;7115;50.150;8.568;2023-01-13T06:48:17;1.47;;;0.30;;
14078;SDS011;7115;50.150;8.568;2023-01-13T06:50:45;0.77;;;0.27;;
14078;SDS011;7115;50.150;8.568;2023-01-13T06:53:12;1.23;;;0.40;;
14078;SDS011;7115;50.150;8.568;2023-01-13T06:55:39;1.27;;;0.40;;
14078;SDS011;7115;50.150;8.568;2023-01-13T06:58:06;1.70;;;0.33;;
14078;SDS011;7115;50.150;8.568;2023-01-13T07:00:33;2.23;;;0.40;;
14078;SDS011;7115;50.150;8.568;2023-01-13T07:03:06;4.03;;;0.70;;
14078;SDS011;7115;50.150;8.568;2023-01-13T07:05:35;4.03;;;0.20;;
14078;SDS011;7115;50.150;8.568;2023-01-13T07:08:03;1.77;;;0.70;;
14078;SDS011;7115;50.150;8.568;2023-01-13T07:10:30;1.73;;;0.60;;
14078;SDS011;7115;50.150;8.568;2023-01-13T07:12:58;2.07;;;0.40;;
14078;SDS011;7115;50.150;8.568;2023-01-13T07:15:54;1.03;;;0.40;;
14078;SDS011;7115;50.150;8.568;2023-01-13T07:18:22;3.23;;;0.50;;
14078;SDS011;7115;50.150;8.568;2023-01-13T07:20:52;1.10;;;0.40;;
14078;SDS011;7115;50.150;8.568;2023-01-13T07:23:19;2.93;;;0.50;;
14078;SDS011;7115;50.150;8.568;2023-01-13T07:25:46;1.43;;;0.50;;
14078;SDS011;7115;50.150;8.568;2023-01-13T07:28:14;1.97;;;0.47;;
14078;SDS011;7115;50.150;8.568;2023-01-13T07:30:41;4.60;;;0.90;;
14078;SDS011;7115;50.150;8.568;2023-01-13T07:33:08;1.07;;;0.60;;
14078;SDS011;7115;50.150;8.568;2023-01-13T07:35:34;4.97;;;0.80;;
14078;SDS011;7115;50.150;8.568;2023-01-13T07:38:03;0.87;;;0.40;;
14078;SDS011;7115;50.150;8.568;2023-01-13T07:40:29;5.77;;;0.57;;
14078;SDS011;7115;50.150;8.568;2023-01-13T07:42:56;0.80;;;0.40;;
14078;SDS011;7115;50.150;8.568;2023-01-13T07:45:42;0.57;;;0.40;;
14078;SDS011;7115;50.150;8.568;2023-01-13T07:48:09;2.23;;;0.40;;
14078;SDS011;7115;50.150;8.568;2023-01-13T07:50:36;0.87;;;0.63;;
14078;SDS011;7115;50.150;8.568;2023-01-13T07:53:04;3.37;;;0.70;;
14078;SDS011;7115;50.150;8.568;2023-01-13T07:55:31;1.58;;;0.57;;
14078;SDS011;7115;50.150;8.568;2023-01-13T07:57:58;4.00;;;0.30;;
14078;SDS011;7115;50.150;8.568;2023-01-13T08:00:25;2.67;;;0.47;;
14078;SDS011;7115;50.150;8.568;2023-01-13T08:02:52;1.10;;;0.30;;
14078;SDS011;7115;50.150;8.568;2023-01-13T08:05:19;1.70;;;0.50;;
14078;SDS011;7115;50.150;8.568;2023-01-13T08:07:46;1.47;;;0.50;;
14078;SDS011;7115;50.150;8.568;2023-01-13T08:10:14;2.27;;;0.47;;
14078;SDS011;7115;50.150;8.568;2023-01-13T08:12:41;4.93;;;0.63;;
14078;SDS011;7115;50.150;8.568;2023-01-13T08:15:27;2.97;;;0.50;;
14078;SDS011;7115;50.150;8.568;2023-01-13T08:17:54;0.30;;;0.30;;
14078;SDS011;7115;50.150;8.568;2023-01-13T08:20:24;1.73;;;0.47;;
14078;SDS011;7115;50.150;8.568;2023-01-13T08:22:54;1.40;;;0.40;;
14078;SDS011;7115;50.150;8.568;2023-01-13T08:25:23;2.37;;;0.40;;
14078;SDS011;7115;50.150;8.568;2023-01-13T08:27:51;0.80;;;0.37;;
14078;SDS011;7115;50.150;8.568;2023-01-13T08:30:19;2.87;;;0.50;;
14078;SDS011;7115;50.150;8.568;2023-01-13T08:32:46;1.83;;;0.47;;
14078;SDS011;7115;50.150;8.568;2023-01-13T08:35:15;1.10;;;0.50;;
14078;SDS011;7115;50.150;8.568;2023-01-13T08:37:42;1.07;;;0.40;;
14078;SDS011;7115;50.150;8.568;2023-01-13T08:40:10;2.20;;;0.83;;
14078;SDS011;7115;50.150;8.568;2023-01-13T08:42:39;0.70;;;0.30;;
14078;SDS011;7115;50.150;8.568;2023-01-13T08:45:09;0.97;;;0.50;;
14078;SDS011;7115;50.150;8.568;2023-01-13T08:47:36;2.20;;;0.30;;
14078;SDS011;7115;50.150;8.568;2023-01-13T08:50:03;1.97;;;0.60;;
14078;SDS011;7115;50.150;8.568;2023-01-13T08:52:31;1.07;;;0.30;;
14078;SDS011;7115;50.150;8.568;2023-01-13T08:54:58;2.27;;;0.40;;
14078;SDS011;7115;50.150;8.568;2023-01-13T08:57:25;1.20;;;0.60;;
14078;SDS011;7115;50.150;8.568;2023-01-13T08:59:53;2.10;;;0.43;;
14078;SDS011;7115;50.150;8.568;2023-01-13T09:02:20;2.67;;;0.70;;
14078;SDS011;7115;50.150;8.568;2023-01-13T09:04:49;1.30;;;0.50;;
14078;SDS011;7115;50.150;8.568;2023-01-13T09:07:17;8.87;;;2.43;;
14078;SDS011;7115;50.150;8.568;2023-01-13T09:09:44;4.00;;;0.80;;
14078;SDS011;7115;50.150;8.568;2023-01-13T09:12:12;5.03;;;1.33;;
14078;SDS011;7115;50.150;8.568;2023-01-13T09:15:00;1.23;;;0.30;;
14078;SDS011;7115;50.150;8.568;2023-01-13T09:17:27;1.53;;;0.60;;
14078;SDS011;7115;50.150;8.568;2023-01-13T09:19:54;2.37;;;0.50;;
14078;SDS011;7115;50.150;8.568;2023-01-13T09:22:21;2.47;;;0.60;;
14078;SDS011;7115;50.150;8.568;2023-01-13T09:24:53;1.93;;;0.57;;
14078;SDS011;7115;50.150;8.568;2023-01-13T09:27:20;6.27;;;1.00;;
14078;SDS011;7115;50.150;8.568;2023-01-13T09:29:48;3.40;;;0.57;;
14078;SDS011;7115;50.150;8.568;2023-01-13T09:32:16;2.07;;;0.70;;
14078;SDS011;7115;50.150;8.568;2023-01-13T09:34:43;3.27;;;1.23;;
14078;SDS011;7115;50.150;8.568;2023-01-13T09:37:26;3.47;;;0.67;;
14078;SDS011;7115;50.150;8.568;2023-01-13T09:39:54;2.90;;;0.50;;
14078;SDS011;7115;50.150;8.568;2023-01-13T09:42:23;0.67;;;0.57;;
14078;SDS011;7115;50.150;8.568;2023-01-13T09:45:15;2.73;;;0.50;;
14078;SDS011;7115;50.150;8.568;2023-01-13T09:47:48;3.80;;;0.70;;
14078;SDS011;7115;50.150;8.568;2023-01-13T09:50:27;2.90;;;0.70;;
14078;SDS011;7115;50.150;8.568;2023-01-13T09:52:59;3.07;;;0.60;;
14078;SDS011;7115;50.150;8.568;2023-01-13T09:55:28;2.53;;;0.70;;
14078;SDS011;7115;50.150;8.568;2023-01-13T09:58:00;6.57;;;0.77;;
14078;SDS011;7115;50.150;8.568;2023-01-13T10:00:36;1.87;;;0.57;;
14078;SDS011;7115;50.150;8.568;2023-01-13T10:03:22;1.83;;;0.50;;
14078;SDS011;7115;50.150;8.568;2023-01-13T10:05:55;4.57;;;0.67;;
14078;SDS011;7115;50.150;8.568;2023-01-13T10:08:27;4.50;;;0.70;;
14078;SDS011;7115;50.150;8.568;2023-01-13T10:10:58;3.53;;;0.67;;
14078;SDS011;7115;50.150;8.568;2023-01-13T10:13:46;2.00;;;0.57;;
14078;SDS011;7115;50.150;8.568;2023-01-13T10:16:20;4.07;;;1.03;;
14078;SDS011;7115;50.150;8.568;2023-01-13T10:19:01;2.83;;;0.53;;
14078;SDS011;7115;50.150;8.568;2023-01-13T10:21:41;3.77;;;0.80;;
14078;SDS011;7115;50.150;8.568;2023-01-13T10:24:28;3.27;;;0.63;;
14078;SDS011;7115;50.150;8.568;2023-01-13T10:27:11;2.40;;;0.73;;
14078;SDS011;7115;50.150;8.568;2023-01-13T10:29:44;5.07;;;1.00;;
14078;SDS011;7115;50.150;8.568;2023-01-13T10:32:10;3.63;;;0.80;;
14078;SDS011;7115;50.150;8.568;2023-01-13T10:34:45;3.77;;;0.80;;
14078;SDS011;7115;50.150;8.568;2023-01-13T10:37:20;5.20;;;0.90;;
14078;SDS011;7115;50.150;8.568;2023-01-13T10:39:50;4.67;;;0.77;;
14078;SDS011;7115;50.150;8.568;2023-01-13T10:42:21;6.33;;;1.00;;
14078;SDS011;7115;50.150;8.568;2023-01-13T10:44:49;4.83;;;0.93;;
14078;SDS011;7115;50.150;8.568;2023-01-13T10:47:19;4.07;;;0.73;;
14078;SDS011;7115;50.150;8.568;2023-01-13T10:50:01;7.33;;;1.10;;
14078;SDS011;7115;50.150;8.568;2023-01-13T10:52:54;7.73;;;0.90;;
14078;SDS011;7115;50.150;8.568;2023-01-13T10:55:24;8.63;;;1.07;;
14078;SDS011;7115;50.150;8.568;2023-01-13T10:57:53;5.83;;;1.13;;
14078;SDS011;7115;50.150;8.568;2023-01-13T11:00:28;4.57;;;0.93;;
14078;SDS011;7115;50.150;8.568;2023-01-13T11:03:12;8.83;;;1.17;;
14078;SDS011;7115;50.150;8.568;2023-01-13T11:05:50;2.90;;;0.70;;
14078;SDS011;7115;50.150;8.568;2023-01-13T11:08:19;5.67;;;1.60;;
14078;SDS011;7115;50.150;8.568;2023-01-13T11:10:48;6.00;;;0.97;;
14078;SDS011;7115;50.150;8.568;2023-01-13T11:20:42;4.40;;;0.90;;
14078;SDS011;7115;50.150;8.568;2023-01-13T11:25:42;4.67;;;0.60;;
14078;SDS011;7115;50.150;8.568;2023-01-13T11:28:16;4.63;;;0.80;;
14078;SDS011;7115;50.150;8.568;2023-01-13T11:30:57;1.57;;;0.70;;
14078;SDS011;7115;50.150;8.568;2023-01-13T11:33:35;3.57;;;0.40;;
14078;SDS011;7115;50.150;8.568;2023-01-13T11:36:09;0.70;;;0.47;;
14078;SDS011;7115;50.150;8.568;2023-01-13T11:38:42;4.67;;;0.80;;
14078;SDS011;7115;50.150;8.568;2023-01-13T11:41:19;2.10;;;0.70;;
14078;SDS011;7115;50.150;8.568;2023-01-13T11:43:53;5.17;;;1.00;;
14078;SDS011;7115;50.150;8.568;2023-01-13T11:46:24;4.40;;;0.90;;
14078;SDS011;7115;50.150;8.568;2023-01-13T11:48:53;5.23;;;0.60;;
14078;SDS011;7115;50.150;8.568;2023-01-13T11:51:25;3.73;;;0.80;;
14078;SDS011;7115;50.150;8.568;2023-01-13T11:54:04;2.67;;;0.97;;
14078;SDS011;7115;50.150;8.568;2023-01-13T11:57:09;3.93;;;1.03;;
14078;SDS011;7115;50.150;8.568;2023-01-13T11:59:56;2.70;;;0.90;;
14078;SDS011;7115;50.150;8.568;2023-01-13T12:02:46;4.73;;;1.10;;
14078;SDS011;7115;50.150;8.568;2023-01-13T12:05:21;4.20;;;1.00;;
14078;SDS011;7115;50.150;8.568;2023-01-13T12:07:58;8.73;;;1.27;;
14078;SDS011;7115;50.150;8.568;2023-01-13T12:10:40;3.67;;;1.03;;
14078;SDS011;7115;50.150;8.568;2023-01-13T12:13:18;3.97;;;1.10;;
14078;SDS011;7115;50.150;8.568;2023-01-13T12:15:56;6.37;;;0.90;;
14078;SDS011;7115;50.150;8.568;2023-01-13T12:18:50;6.57;;;0.80;;
14078;SDS011;7115;50.150;8.568;2023-01-13T12:21:31;4.23;;;0.83;;
14078;SDS011;7115;50.150;8.568;2023-01-13T12:24:05;5.77;;;1.47;;
14078;SDS011;7115;50.150;8.568;2023-01-13T12:26:45;3.87;;;0.97;;
14078;SDS011;7115;50.150;8.568;2023-01-13T12:29:19;5.27;;;1.30;;
14078;SDS011;7115;50.150;8.568;2023-01-13T12:31:55;6.57;;;1.23;;
14078;SDS011;7115;50.150;8.568;2023-01-13T12:34:25;6.03;;;1.00;;
14078;SDS011;7115;50.150;8.568;2023-01-13T12:37:01;5.27;;;0.80;;
14078;SDS011;7115;50.150;8.568;2023-01-13T12:39:37;6.13;;;0.83;;
14078;SDS011;7115;50.150;8.568;2023-01-13T12:42:16;10.13;;;1.03;;
14078;SDS011;7115;50.150;8.568;2023-01-13T12:45:06;4.67;;;0.90;;
14078;SDS011;7115;50.150;8.568;2023-01-13T12:47:51;5.83;;;1.17;;
14078;SDS011;7115;50.150;8.568;2023-01-13T12:50:40;5.13;;;1.23;;
14078;SDS011;7115;50.150;8.568;2023-01-13T13:04:56;3.67;;;0.90;;
14078;SDS011;7115;50.150;8.568;2023-01-13T13:07:29;10.07;;;1.23;;
14078;SDS011;7115;50.150;8.568;2023-01-13T13:10:03;5.47;;;1.30;;
14078;SDS011;7115;50.150;8.568;2023-01-13T13:12:57;3.63;;;1.20;;
14078;SDS011;7115;50.150;8.568;2023-01-13T13:15:45;6.40;;;1.40;;
14078;SDS011;7115;50.150;8.568;2023-01-13T13:21:04;7.83;;;1.40;;
14078;SDS011;7115;50.150;8.568;2023-01-13T13:23:41;7.10;;;1.07;;
14078;SDS011;7115;50.150;8.568;2023-01-13T13:26:22;6.63;;;1.10;;
14078;SDS011;7115;50.150;8.568;2023-01-13T13:29:00;5.33;;;1.33;;
14078;SDS011;7115;50.150;8.568;2023-01-13T13:31:48;4.20;;;0.70;;
14078;SDS011;7115;50.150;8.568;2023-01-13T13:34:29;3.70;;;1.00;;
14078;SDS011;7115;50.150;8.568;2023-01-13T13:37:06;4.57;;;0.83;;
14078;SDS011;7115;50.150;8.568;2023-01-13T13:39:50;4.20;;;0.90;;
14078;SDS011;7115;50.150;8.568;2023-01-13T13:42:37;8.07;;;1.10;;
14078;SDS011;7115;50.150;8.568;2023-01-13T13:45:27;3.97;;;0.70;;
14078;SDS011;7115;50.150;8.568;2023-01-13T13:48:22;6.73;;;0.67;;
14078;SDS011;7115;50.150;8.568;2023-01-13T13:50:51;5.83;;;0.70;;
14078;SDS011;7115;50.150;8.568;2023-01-13T13:53:23;4.77;;;0.70;;
14078;SDS011;7115;50.150;8.568;2023-01-13T13:55:53;2.60;;;0.70;;
14078;SDS011;7115;50.150;8.568;2023-01-13T13:58:22;4.37;;;0.80;;
14078;SDS011;7115;50.150;8.568;2023-01-13T14:00:51;3.87;;;0.67;;
14078;SDS011;7115;50.150;8.568;2023-01-13T14:03:22;3.20;;;0.60;;
14078;SDS011;7115;50.150;8.568;2023-01-13T14:05:52;3.53;;;0.87;;
14078;SDS011;7115;50.150;8.568;2023-01-13T14:08:20;3.83;;;0.80;;
14078;SDS011;7115;50.150;8.568;2023-01-13T14:10:48;3.33;;;0.90;;
14078;SDS011;7115;50.150;8.568;2023-01-13T14:13:18;2.03;;;0.57;;
14078;SDS011;7115;50.150;8.568;2023-01-13T14:15:46;3.90;;;0.73;;
14078;SDS011;7115;50.150;8.568;2023-01-13T14:18:15;4.27;;;0.80;;
14078;SDS011;7115;50.150;8.568;2023-01-13T14:20:51;6.20;;;0.90;;
14078;SDS011;7115;50.150;8.568;2023-01-13T14:23:21;4.03;;;0.93;;
14078;SDS011;7115;50.150;8.568;2023-01-13T14:25:52;7.27;;;0.90;;
14078;SDS011;7115;50.150;8.568;2023-01-13T14:28:20;3.20;;;0.80;;
14078;SDS011;7115;50.150;8.568;2023-01-13T14:30:50;6.57;;;1.30;;
14078;SDS011;7115;50.150;8.568;2023-01-13T14:33:19;8.20;;;1.13;;
14078;SDS011;7115;50.150;8.568;2023-01-13T14:36:04;8.93;;;1.20;;
14078;SDS011;7115;50.150;8.568;2023-01-13T14:38:42;4.73;;;0.80;;
14078;SDS011;7115;50.150;8.568;2023-01-13T14:41:14;2.70;;;0.63;;
14078;SDS011;7115;50.150;8.568;2023-01-13T14:43:47;4.03;;;0.90;;
14078;SDS011;7115;50.150;8.568;2023-01-13T14:46:16;3.20;;;0.83;;
14078;SDS011;7115;50.150;8.568;2023-01-13T14:48:44;3.83;;;1.00;;
14078;SDS011;7115;50.150;8.568;2023-01-13T14:51:21;4.90;;;0.80;;
14078;SDS011;7115;50.150;8.568;2023-01-13T14:53:50;6.80;;;1.00;;
14078;SDS011;7115;50.150;8.568;2023-01-13T14:56:36;3.67;;;0.67;;
14078;SDS011;7115;50.150;8.568;2023-01-13T15:02:21;3.67;;;0.70;;
14078;SDS011;7115;50.150;8.568;2023-01-13T15:08:28;7.20;;;1.07;;
14078;SDS011;7115;50.150;8.568;2023-01-13T15:11:00;7.63;;;1.20;;
14078;SDS011;7115;50.150;8.568;2023-01-13T15:13:30;7.50;;;1.53;;
14078;SDS011;7115;50.150;8.568;2023-01-13T15:16:02;8.53;;;0.90;;
14078;SDS011;7115;50.150;8.568;2023-01-13T15:18:31;5.77;;;0.93;;
14078;SDS011;7115;50.150;8.568;2023-01-13T15:20:59;7.97;;;1.13;;
14078;SDS011;7115;50.150;8.568;2023-01-13T15:23:26;6.97;;;1.10;;
14078;SDS011;7115;50.150;8.568;2023-01-13T15:25:54;5.90;;;1.30;;
14078;SDS011;7115;50.150;8.568;2023-01-13T15:28:23;4.43;;;1.00;;
14078;SDS011;7115;50.150;8.568;2023-01-13T15:30:52;10.17;;;1.20;;
14078;SDS011;7115;50.150;8.568;2023-01-13T15:33:21;5.07;;;1.10;;
14078;SDS011;7115;50.150;8.568;2023-01-13T15:35:49;3.30;;;0.83;;
14078;SDS011;7115;50.150;8.568;2023-01-13T15:38:17;5.93;;;1.00;;
14078;SDS011;7115;50.150;8.568;2023-01-13T15:40:46;8.40;;;1.57;;
14078;SDS011;7115;50.150;8.568;2023-01-13T15:43:17;3.30;;;0.57;;
14078;SDS011;7115;50.150;8.568;2023-01-13T15:46:07;6.03;;;1.07;;
14078;SDS011;7115;50.150;8.568;2023-01-13T15:49:05;3.63;;;1.03;;
14078;SDS011;7115;50.150;8.568;2023-01-13T15:51:38;5.63;;;1.37;;
14078;SDS011;7115;50.150;8.568;2023-01-13T15:54:05;6.00;;;0.83;;
14078;SDS011;7115;50.150;8.568;2023-01-13T15:56:32;5.27;;;1.10;;
14078;SDS011;7115;50.150;8.568;2023-01-13T15:59:03;5.90;;;1.33;;
14078;SDS011;7115;50.150;8.568;2023-01-13T16:01:30;5.40;;;0.87;;
14078;SDS011;7115;50.150;8.568;2023-01-13T16:03:57;5.23;;;1.40;;
14078;SDS011;7115;50.150;8.568;2023-01-13T16:06:25;3.07;;;0.90;;
14078;SDS011;7115;50.150;8.568;2023-01-13T16:08:57;8.30;;;1.33;;